DucheSS Of Scandinavia — OUZI2 — position and weather

sailwx.info

Track history (hours):
 
Tides and Currents Weather Stations Pressure Air Temp Water Temp Dewpoint Dewpoint Depression Visibility Wind Speed Wind Dir Waves Ship Positions

DucheSS Of Scandinavia

Operator: DFDS A/S

Last reported at 2018-May-27 08:01 UTC. Time now 2018-May-27 08:12 UTC.
Position N 59°02' E 010°47'.

Length 134 m; draft 5.4 m.

Type: Passenger vessel. MMSI: 219002929.

Date/timePositionNaut miles runAvg speedWind from/ knotsBaromVisibWave heightAir tempDewpointWater temp
2018-May-27 08:01N 59°02' E 010°47'815.5
2018-May-27 07:31N 59°01' E 010°32'815.5
2018-May-27 07:00N 59°01' E 010°17'612.5
2018-May-27 06:30N 59°07' E 010°14'0 0.6
2018-May-27 06:00N 59°08' E 010°14'0 0.9
2018-May-27 05:30N 59°07' E 010°14'1 2.0
2018-May-27 05:01N 59°06' E 010°14'0 0.0
2018-May-27 04:28N 59°06' E 010°14'0 0.0
2018-May-27 03:58N 59°06' E 010°14'0 0.0
2018-May-27 03:29N 59°06' E 010°14'0 0.0
2018-May-27 02:59N 59°06' E 010°14'0 0.0
2018-May-27 02:29N 59°06' E 010°14'0 0.0
2018-May-27 02:00N 59°06' E 010°14'0 0.0
2018-May-27 01:30N 59°06' E 010°14'0 0.0
2018-May-27 01:00N 59°06' E 010°14'0 0.0
2018-May-27 00:31N 59°06' E 010°14'0 0.0
2018-May-26 23:58N 59°06' E 010°14'0 0.0
2018-May-26 23:28N 59°06' E 010°14'0 0.0
2018-May-26 22:59N 59°06' E 010°14'0 0.0
2018-May-26 22:29N 59°06' E 010°14'0 0.0
2018-May-26 21:59N 59°06' E 010°14'0 0.0
2018-May-26 21:30N 59°06' E 010°14'0 0.0
2018-May-26 21:00N 59°06' E 010°14'0 0.0
2018-May-26 20:30N 59°06' E 010°14'0 0.0
2018-May-26 20:00N 59°06' E 010°14'1 1.3
2018-May-26 19:31N 59°07' E 010°14'1 1.5
2018-May-26 19:00N 59°08' E 010°14'5 9.3
2018-May-26 18:31N 59°03' E 010°15'714.9
2018-May-26 18:00N 59°01' E 010°29'816.2
2018-May-26 17:31N 59°01' E 010°45'815.9
2018-May-26 17:00N 58°60' E 010°60'613.0
2018-May-26 16:31N 58°56' E 011°10'0 0.1
2018-May-26 16:00N 58°56' E 011°10'4 8.5
2018-May-26 15:30N 58°58' E 011°03'815.2
2018-May-26 15:01N 59°01' E 010°50'815.3
2018-May-26 14:31N 59°01' E 010°35'715.0
2018-May-26 14:01N 59°01' E 010°20'612.2
2018-May-26 13:30N 59°06' E 010°14'1 2.8
2018-May-26 13:00N 59°08' E 010°14'0 0.0
2018-May-26 12:31N 59°08' E 010°14'4 7.8
2018-May-26 12:01N 59°04' E 010°15'714.4
2018-May-26 11:31N 59°01' E 010°28'816.0
2018-May-26 11:00N 59°02' E 010°43'815.6
2018-May-26 10:31N 58°60' E 010°58'714.2
2018-May-26 10:01N 58°56' E 011°09'1 1.1
2018-May-26 09:31N 58°56' E 011°10'0 0.8
2018-May-26 08:59N 58°56' E 011°09'613.2
2018-May-26 08:30N 58°59' E 010°59'815.1
2018-May-26 08:00N 59°02' E 010°45'815.2
2018-May-26 07:30N 59°00' E 010°31'714.9
2018-May-26 07:01N 59°01' E 010°17'612.1
2018-May-26 06:30N 59°07' E 010°14'1 0.6
2018-May-26 05:30N 59°07' E 010°14'1 1.0
2018-May-26 04:59N 59°06' E 010°14'0 0.0
2018-May-26 04:30N 59°06' E 010°14'0 0.0
2018-May-26 04:00N 59°06' E 010°14'0 0.0
2018-May-26 03:30N 59°06' E 010°14'0 0.0
2018-May-26 02:58N 59°06' E 010°14'0 0.0
2018-May-26 02:28N 59°06' E 010°14'0 0.0
2018-May-26 01:58N 59°06' E 010°14'0 0.0
2018-May-26 01:29N 59°06' E 010°14'0 0.0
2018-May-26 00:59N 59°06' E 010°14'0 0.0
2018-May-26 00:29N 59°06' E 010°14'0 0.0
2018-May-26 00:00N 59°06' E 010°14'0 0.0
2018-May-25 23:30N 59°06' E 010°14'0 0.0
2018-May-25 23:00N 59°06' E 010°14'0 0.0
2018-May-25 22:28N 59°06' E 010°14'0 0.0
2018-May-25 21:58N 59°06' E 010°14'0 0.0
2018-May-25 21:28N 59°06' E 010°14'0 0.0
2018-May-25 20:59N 59°06' E 010°14'0 0.0
2018-May-25 20:29N 59°06' E 010°14'0 0.0
2018-May-25 19:59N 59°06' E 010°14'1 2.1
2018-May-25 19:30N 59°07' E 010°14'0 0.8
2018-May-25 19:00N 59°08' E 010°14'3 6.6
2018-May-25 18:30N 59°04' E 010°15'714.2
2018-May-25 18:00N 59°01' E 010°27'816.1
2018-May-25 17:30N 59°01' E 010°42'816.1
2018-May-25 17:00N 59°00' E 010°58'714.5
2018-May-25 16:30N 58°56' E 011°09'1 1.0
2018-May-25 16:01N 58°56' E 011°10'4 8.6
2018-May-25 15:31N 58°58' E 011°03'815.5
2018-May-25 15:01N 59°01' E 010°49'815.9
2018-May-25 14:30N 59°01' E 010°34'815.7
2018-May-25 14:00N 59°01' E 010°19'612.6
2018-May-25 13:30N 59°07' E 010°14'1 1.3
2018-May-25 13:01N 59°08' E 010°14'0 0.0
2018-May-25 12:31N 59°08' E 010°14'5 9.6
2018-May-25 12:00N 59°03' E 010°15'714.1
2018-May-25 11:30N 59°01' E 010°28'714.9
2018-May-25 11:00N 59°01' E 010°43'714.9
2018-May-25 10:31N 59°00' E 010°57'714.4
2018-May-25 10:00N 58°56' E 011°08'1 2.0
2018-May-25 09:31N 58°56' E 011°10'0 0.4
2018-May-25 09:00N 58°56' E 011°10'713.9
2018-May-25 08:30N 58°60' E 010°58'815.1
2018-May-25 08:00N 59°02' E 010°44'815.7
2018-May-25 07:30N 59°00' E 010°29'714.6
2018-May-25 07:01N 59°02' E 010°15'510.5
2018-May-25 06:31N 59°08' E 010°14'0 0.2
2018-May-25 06:01N 59°08' E 010°14'1 2.2
2018-May-25 05:30N 59°06' E 010°14'0 0.7
2018-May-25 04:59N 59°06' E 010°14'0 0.0
2018-May-25 04:29N 59°06' E 010°14'0 0.0
2018-May-25 03:59N 59°06' E 010°14'0 0.0
2018-May-25 03:30N 59°06' E 010°14'0 0.0
2018-May-25 03:00N 59°06' E 010°14'0 0.0
2018-May-25 02:30N 59°06' E 010°14'0 0.0
2018-May-25 01:58N 59°06' E 010°14'0 0.0
2018-May-25 01:28N 59°06' E 010°14'0 0.0
2018-May-25 00:58N 59°06' E 010°14'0 0.0
2018-May-25 00:29N 59°06' E 010°14'0 0.0
2018-May-24 23:59N 59°06' E 010°14'0 0.0
2018-May-24 23:29N 59°06' E 010°14'0 0.0
2018-May-24 23:00N 59°06' E 010°14'0 0.0
2018-May-24 22:30N 59°06' E 010°14'0 0.0
2018-May-24 22:00N 59°06' E 010°14'0 0.0
2018-May-24 21:28N 59°06' E 010°14'0 0.0
2018-May-24 20:58N 59°06' E 010°14'0 0.0
2018-May-24 20:28N 59°06' E 010°14'0 0.0
2018-May-24 19:59N 59°06' E 010°14'0 0.2
2018-May-24 19:30N 59°06' E 010°14'1 2.7
2018-May-24 19:00N 59°08' E 010°14'4 8.1
2018-May-24 18:31N 59°04' E 010°15'714.5
2018-May-24 18:00N 59°01' E 010°28'815.8
2018-May-24 17:30N 59°01' E 010°43'815.7
2018-May-24 17:00N 58°60' E 010°58'714.1
2018-May-24 16:30N 58°56' E 011°09'1 1.1
2018-May-24 16:00N 58°56' E 011°10'5 9.6
2018-May-24 15:30N 58°58' E 011°02'815.3
2018-May-24 15:00N 59°01' E 010°49'815.8
2018-May-24 14:30N 59°01' E 010°33'815.4
2018-May-24 14:00N 59°01' E 010°18'612.6
2018-May-24 13:30N 59°07' E 010°14'31 6.9
2018-May-24 09:00N 58°56' E 011°10'612.8
2018-May-24 08:30N 58°60' E 010°59'815.1
2018-May-24 08:00N 59°02' E 010°46'815.9
2018-May-24 07:30N 59°01' E 010°30'714.7
2018-May-24 07:00N 59°02' E 010°16'611.8
2018-May-24 06:30N 59°07' E 010°14'0 0.3
2018-May-24 06:00N 59°08' E 010°14'1 1.6
2018-May-24 05:30N 59°07' E 010°14'1 1.2
2018-May-24 05:00N 59°06' E 010°14'0 0.0
2018-May-24 04:30N 59°06' E 010°14'0 0.0
2018-May-24 04:00N 59°06' E 010°14'0 0.0
2018-May-24 03:28N 59°06' E 010°14'0 0.0
2018-May-24 02:58N 59°06' E 010°14'0 0.0
2018-May-24 02:28N 59°06' E 010°14'0 0.0
2018-May-24 01:59N 59°06' E 010°14'0 0.0
2018-May-24 01:29N 59°06' E 010°14'0 0.0
2018-May-24 00:59N 59°06' E 010°14'0 0.0
2018-May-24 00:30N 59°06' E 010°14'0 0.0
2018-May-24 00:00N 59°06' E 010°14'0 0.0
2018-May-23 23:30N 59°06' E 010°14'0 0.0
2018-May-23 22:58N 59°06' E 010°14'0 0.0
2018-May-23 22:28N 59°06' E 010°14'0 0.0
2018-May-23 21:58N 59°06' E 010°14'0 0.0
2018-May-23 21:29N 59°06' E 010°14'0 0.0
2018-May-23 20:59N 59°06' E 010°14'0 0.0
2018-May-23 20:29N 59°06' E 010°14'0 0.0
2018-May-23 20:00N 59°06' E 010°14'0 0.3
2018-May-23 19:30N 59°06' E 010°14'1 2.6
2018-May-23 19:00N 59°08' E 010°14'4 8.8
2018-May-23 18:30N 59°03' E 010°15'815.3
2018-May-23 18:00N 59°01' E 010°29'815.9
2018-May-23 17:30N 59°02' E 010°44'816.0
2018-May-23 17:00N 58°60' E 010°59'713.4
2018-May-23 16:31N 58°56' E 011°10'0 0.1
2018-May-23 16:00N 58°56' E 011°10'4 8.7
2018-May-23 15:30N 58°58' E 011°03'714.4
2018-May-23 15:00N 59°01' E 010°50'714.9
2018-May-23 14:30N 59°01' E 010°36'815.3
2018-May-23 14:00N 59°01' E 010°21'612.4
2018-May-23 13:30N 59°06' E 010°14'2 3.0
2018-May-23 13:00N 59°08' E 010°14'0 0.0
2018-May-23 12:31N 59°08' E 010°14'4 8.3
2018-May-23 12:00N 59°04' E 010°15'612.3
2018-May-23 11:30N 59°01' E 010°26'815.9
2018-May-23 11:00N 59°02' E 010°41'816.2
2018-May-23 10:30N 59°00' E 010°57'815.3
2018-May-23 10:01N 58°56' E 011°09'1 1.4
2018-May-23 09:29N 58°56' E 011°10'0 0.0
2018-May-23 09:01N 58°56' E 011°10'612.4
2018-May-23 08:30N 58°59' E 010°60'815.2
2018-May-23 08:00N 59°02' E 010°46'815.7
2018-May-23 07:30N 59°00' E 010°31'815.2
2018-May-23 07:01N 59°02' E 010°16'611.7
2018-May-23 06:30N 59°07' E 010°14'0 0.4
2018-May-23 06:00N 59°08' E 010°14'1 1.5
2018-May-23 05:30N 59°07' E 010°14'1 1.4
2018-May-23 05:00N 59°06' E 010°14'0 0.0
2018-May-23 04:30N 59°06' E 010°14'0 0.0
2018-May-23 03:58N 59°06' E 010°14'0 0.0
2018-May-23 03:28N 59°06' E 010°14'0 0.0
2018-May-23 02:58N 59°06' E 010°14'0 0.0
2018-May-23 02:29N 59°06' E 010°14'0 0.0
2018-May-23 01:59N 59°06' E 010°14'0 0.0
2018-May-23 01:29N 59°06' E 010°14'0 0.0
2018-May-23 01:00N 59°06' E 010°14'0 0.0
2018-May-23 00:30N 59°06' E 010°14'0 0.0
2018-May-23 00:00N 59°06' E 010°14'0 0.0
2018-May-22 23:28N 59°06' E 010°14'0 0.0
2018-May-22 22:58N 59°06' E 010°14'0 0.0
2018-May-22 22:28N 59°06' E 010°14'0 0.0
2018-May-22 21:59N 59°06' E 010°14'0 0.0
2018-May-22 21:29N 59°06' E 010°14'0 0.0
2018-May-22 20:59N 59°06' E 010°14'0 0.0
2018-May-22 20:27N 59°06' E 010°14'0 0.0
2018-May-22 20:00N 59°06' E 010°14'1 1.8
2018-May-22 19:30N 59°07' E 010°14'1 1.1
2018-May-22 19:01N 59°08' E 010°14'5 9.1
2018-May-22 18:30N 59°03' E 010°15'714.4
2018-May-22 18:00N 59°01' E 010°28'815.5
2018-May-22 17:30N 59°01' E 010°43'816.0
2018-May-22 17:01N 58°60' E 010°59'714.0
2018-May-22 16:31N 58°56' E 011°10'0 0.4
2018-May-22 16:00N 58°56' E 011°10'4 7.7
2018-May-22 15:30N 58°57' E 011°03'715.0
2018-May-22 15:00N 59°01' E 010°51'815.2
2018-May-22 14:31N 59°01' E 010°36'815.3
2018-May-22 14:00N 59°01' E 010°21'612.9
2018-May-22 13:30N 59°06' E 010°14'1 2.6
2018-May-22 13:00N 59°08' E 010°14'0 0.0
2018-May-22 12:30N 59°08' E 010°14'5 9.6
2018-May-22 12:00N 59°03' E 010°15'714.4
2018-May-22 11:30N 59°01' E 010°29'815.1
2018-May-22 11:01N 59°01' E 010°43'815.4
2018-May-22 10:31N 58°60' E 010°58'714.2
2018-May-22 10:00N 58°56' E 011°09'0 1.0
2018-May-22 09:30N 58°56' E 011°10'0 0.8
2018-May-22 09:00N 58°56' E 011°09'713.8
2018-May-22 08:30N 58°60' E 010°58'815.0
2018-May-22 08:00N 59°02' E 010°44'815.7
2018-May-22 07:30N 59°00' E 010°30'714.9
2018-May-22 07:00N 59°02' E 010°16'510.6
2018-May-22 06:30N 59°07' E 010°14'0 0.2
2018-May-22 06:01N 59°08' E 010°14'1 1.1
2018-May-22 05:30N 59°07' E 010°14'1 1.8
2018-May-22 05:00N 59°06' E 010°14'0 0.0
2018-May-22 04:28N 59°06' E 010°14'0 0.0
2018-May-22 03:59N 59°06' E 010°14'0 0.0
2018-May-22 03:29N 59°06' E 010°14'0 0.0
2018-May-22 02:59N 59°06' E 010°14'0 0.0
2018-May-22 02:30N 59°06' E 010°14'0 0.0
2018-May-22 02:00N 59°06' E 010°14'0 0.0
2018-May-22 01:30N 59°06' E 010°14'0 0.0
2018-May-22 00:58N 59°06' E 010°14'0 0.0
2018-May-22 00:28N 59°06' E 010°14'0 0.0
2018-May-21 23:58N 59°06' E 010°14'0 0.0
2018-May-21 23:29N 59°06' E 010°14'0 0.0
2018-May-21 22:59N 59°06' E 010°14'0 0.0
2018-May-21 22:29N 59°06' E 010°14'0 0.0
2018-May-21 22:00N 59°06' E 010°14'0 0.0
2018-May-21 21:30N 59°06' E 010°14'0 0.0
2018-May-21 21:00N 59°06' E 010°14'0 0.0
2018-May-21 20:28N 59°06' E 010°14'0 0.0
2018-May-21 19:58N 59°06' E 010°14'0 0.3
2018-May-21 19:29N 59°06' E 010°14'1 2.7
2018-May-21 19:01N 59°08' E 010°14'4 7.2
2018-May-21 18:30N 59°04' E 010°15'714.5
2018-May-21 18:00N 59°01' E 010°27'816.2
2018-May-21 17:30N 59°02' E 010°43'816.7
2018-May-21 17:01N 58°60' E 010°59'713.8
2018-May-21 16:30N 58°56' E 011°10'0 0.1
2018-May-21 16:00N 58°56' E 011°10'4 7.3
2018-May-21 15:31N 58°57' E 011°03'815.3
2018-May-21 15:01N 59°01' E 010°51'816.4
2018-May-21 14:31N 59°01' E 010°35'816.4
2018-May-21 14:01N 59°01' E 010°19'713.0
2018-May-21 13:30N 59°07' E 010°14'1 1.1
2018-May-21 13:00N 59°08' E 010°14'0 0.1
2018-May-21 12:30N 59°08' E 010°14'611.3
2018-May-21 12:01N 59°02' E 010°16'815.1
2018-May-21 11:31N 59°01' E 010°30'714.8
2018-May-21 11:01N 59°02' E 010°44'815.2
2018-May-21 10:31N 58°60' E 010°58'714.1
2018-May-21 10:01N 58°56' E 011°10'0 0.6
2018-May-21 09:30N 58°56' E 011°10'0 1.0
2018-May-21 09:00N 58°56' E 011°09'713.7
2018-May-21 08:30N 58°60' E 010°59'815.1
2018-May-21 08:01N 59°02' E 010°44'816.4
2018-May-21 07:31N 59°00' E 010°29'714.4
2018-May-21 07:00N 59°03' E 010°15'5 9.4
2018-May-21 06:30N 59°08' E 010°14'0 0.0
2018-May-21 06:00N 59°08' E 010°14'0 0.2
2018-May-21 05:30N 59°07' E 010°14'1 2.7
2018-May-21 05:00N 59°06' E 010°14'0 0.0
2018-May-21 04:29N 59°06' E 010°14'0 0.0
2018-May-21 03:59N 59°06' E 010°14'0 0.0
2018-May-21 03:29N 59°06' E 010°14'0 0.0
2018-May-21 03:00N 59°06' E 010°14'0 0.0
2018-May-21 02:30N 59°06' E 010°14'0 0.0
2018-May-21 02:00N 59°06' E 010°14'0 0.0
2018-May-21 01:28N 59°06' E 010°14'0 0.0
2018-May-21 00:58N 59°06' E 010°14'0 0.0
2018-May-21 00:28N 59°06' E 010°14'0 0.0
2018-May-20 23:59N 59°06' E 010°14'0 0.0
2018-May-20 23:29N 59°06' E 010°14'0 0.0
2018-May-20 22:59N 59°06' E 010°14'0 0.0
2018-May-20 22:30N 59°06' E 010°14'0 0.0
2018-May-20 22:00N 59°06' E 010°14'0 0.0
2018-May-20 21:30N 59°06' E 010°14'0 0.0
2018-May-20 20:58N 59°06' E 010°14'0 0.0
2018-May-20 20:28N 59°06' E 010°14'0 0.0
2018-May-20 20:01N 59°06' E 010°14'1 2.6
2018-May-20 19:30N 59°07' E 010°14'0 0.2
2018-May-20 19:01N 59°08' E 010°14'611.3
2018-May-20 18:31N 59°02' E 010°16'815.5
2018-May-20 18:01N 59°01' E 010°30'815.3
2018-May-20 17:30N 59°02' E 010°45'816.0
2018-May-20 17:01N 58°59' E 011°00'612.4
2018-May-20 16:30N 58°56' E 011°10'0 0.0
2018-May-20 16:01N 58°56' E 011°10'4 7.0
2018-May-20 15:30N 58°57' E 011°04'815.7
2018-May-20 15:00N 59°01' E 010°51'816.0
2018-May-20 14:30N 59°01' E 010°35'816.5
2018-May-20 14:01N 59°01' E 010°19'612.7
2018-May-20 13:31N 59°07' E 010°14'1 1.7
2018-May-20 13:00N 59°08' E 010°14'0 0.0
2018-May-20 12:31N 59°08' E 010°14'510.4
2018-May-20 12:00N 59°02' E 010°16'714.8
2018-May-20 11:31N 59°01' E 010°30'815.3
2018-May-20 11:01N 59°02' E 010°44'815.2
2018-May-20 10:31N 58°60' E 010°59'713.7
2018-May-20 10:00N 58°56' E 011°10'0 0.5
2018-May-20 09:30N 58°56' E 011°10'0 0.3
2018-May-20 09:00N 58°56' E 011°10'713.5
2018-May-20 08:30N 58°60' E 010°59'815.6
2018-May-20 08:00N 59°02' E 010°44'816.4
2018-May-20 07:30N 59°00' E 010°28'714.7
2018-May-20 07:00N 59°03' E 010°15'4 8.6
2018-May-20 06:30N 59°08' E 010°14'0 0.0
2018-May-20 06:00N 59°08' E 010°14'0 0.9
2018-May-20 05:30N 59°07' E 010°14'1 2.0
2018-May-20 05:01N 59°06' E 010°14'0 0.0
2018-May-20 04:28N 59°06' E 010°14'0 0.0
2018-May-20 03:58N 59°06' E 010°14'0 0.0
2018-May-20 03:28N 59°06' E 010°14'0 0.0
2018-May-20 02:59N 59°06' E 010°14'0 0.0
2018-May-20 02:29N 59°06' E 010°14'0 0.0
2018-May-20 01:59N 59°06' E 010°14'0 0.0
2018-May-20 01:30N 59°06' E 010°14'0 0.0
2018-May-20 01:00N 59°06' E 010°14'0 0.0
2018-May-20 00:30N 59°06' E 010°14'0 0.0
2018-May-19 23:58N 59°06' E 010°14'0 0.0
2018-May-19 23:28N 59°06' E 010°14'0 0.0
2018-May-19 22:58N 59°06' E 010°14'0 0.0
2018-May-19 22:29N 59°06' E 010°14'0 0.0
2018-May-19 21:59N 59°06' E 010°14'0 0.0
2018-May-19 21:29N 59°06' E 010°14'0 0.0
2018-May-19 21:00N 59°06' E 010°14'0 0.0
2018-May-19 20:27N 59°06' E 010°14'0 0.0
2018-May-19 20:00N 59°06' E 010°14'0 0.0
2018-May-19 19:30N 59°06' E 010°14'1 2.9
2018-May-19 19:00N 59°08' E 010°14'3 5.9
2018-May-19 18:30N 59°05' E 010°15'713.9
2018-May-19 18:00N 59°01' E 010°26'816.1
2018-May-19 17:30N 59°01' E 010°42'816.2
2018-May-19 17:00N 59°00' E 010°57'815.0
2018-May-19 16:30N 58°56' E 011°09'1 1.2
2018-May-19 16:00N 58°56' E 011°10'4 7.6
2018-May-19 15:30N 58°57' E 011°03'815.3
2018-May-19 15:00N 59°01' E 010°50'815.7
2018-May-19 14:30N 59°01' E 010°35'816.1
2018-May-19 14:00N 59°01' E 010°20'612.8
2018-May-19 13:30N 59°07' E 010°14'1 1.8
2018-May-19 13:00N 59°08' E 010°14'0 0.0
2018-May-19 12:30N 59°08' E 010°14'5 9.5
2018-May-19 12:01N 59°03' E 010°15'713.9
2018-May-19 11:30N 59°01' E 010°28'815.1
2018-May-19 11:00N 59°02' E 010°43'815.2
2018-May-19 10:30N 59°00' E 010°57'714.3
2018-May-19 10:01N 58°56' E 011°08'1 1.9
2018-May-19 09:30N 58°56' E 011°10'0 0.1
2018-May-19 09:01N 58°56' E 011°10'713.3
2018-May-19 08:30N 58°59' E 010°59'816.3
2018-May-19 08:00N 59°01' E 010°44'816.7
2018-May-19 07:30N 59°00' E 010°28'714.4
2018-May-19 07:00N 59°04' E 010°15'4 8.0
2018-May-19 06:30N 59°08' E 010°14'0 0.0
2018-May-19 06:00N 59°08' E 010°14'1 1.2
2018-May-19 05:30N 59°07' E 010°14'1 1.7
2018-May-19 05:01N 59°06' E 010°14'0 0.0
2018-May-19 04:30N 59°06' E 010°14'0 0.0
2018-May-19 04:01N 59°06' E 010°14'0 0.0
2018-May-19 03:30N 59°06' E 010°14'0 0.0
2018-May-19 03:00N 59°06' E 010°14'0 0.0
2018-May-19 02:30N 59°06' E 010°14'0 0.0
2018-May-19 02:00N 59°06' E 010°14'0 0.0
2018-May-19 01:30N 59°06' E 010°14'0 0.0
2018-May-19 01:00N 59°06' E 010°14'0 0.0
2018-May-19 00:31N 59°06' E 010°14'0 0.0
2018-May-19 00:00N 59°06' E 010°14'0 0.0
2018-May-18 23:30N 59°06' E 010°14'0 0.0
2018-May-18 23:00N 59°06' E 010°14'0 0.0
2018-May-18 22:31N 59°06' E 010°14'0 0.0
2018-May-18 22:01N 59°06' E 010°14'0 0.0
2018-May-18 21:30N 59°06' E 010°14'0 0.0
2018-May-18 21:00N 59°06' E 010°14'0 0.0
2018-May-18 20:31N 59°06' E 010°14'0 0.0
2018-May-18 20:01N 59°06' E 010°14'1 2.8
2018-May-18 19:30N 59°08' E 010°14'0 0.2
2018-May-18 19:00N 59°07' E 010°14'612.2
2018-May-18 18:30N 59°02' E 010°16'815.9
2018-May-18 18:00N 59°01' E 010°32'816.5
2018-May-18 17:30N 59°02' E 010°47'816.2
2018-May-18 17:01N 58°59' E 011°02'510.0
2018-May-18 16:30N 58°56' E 011°10'0 0.0
2018-May-18 16:00N 58°56' E 011°10'4 8.1
2018-May-18 15:30N 58°58' E 011°03'816.6
2018-May-18 15:00N 59°01' E 010°49'816.4
2018-May-18 14:30N 59°01' E 010°33'816.8
2018-May-18 14:01N 59°02' E 010°17'612.4
2018-May-18 13:30N 59°07' E 010°14'0 0.2
2018-May-18 13:01N 59°08' E 010°14'0 0.0
2018-May-18 12:31N 59°08' E 010°14'4 8.6
2018-May-18 12:00N 59°03' E 010°15'714.1
2018-May-18 11:30N 59°01' E 010°28'815.5
2018-May-18 11:00N 59°01' E 010°43'815.0
2018-May-18 10:31N 59°00' E 010°57'714.7
2018-May-18 10:00N 58°56' E 011°09'1 1.5
2018-May-18 09:30N 58°56' E 011°10'0 0.3
2018-May-18 09:01N 58°56' E 011°10'713.2
2018-May-18 08:31N 58°59' E 010°59'816.2
2018-May-18 08:00N 59°01' E 010°44'816.1
2018-May-18 07:31N 59°01' E 010°28'714.4
2018-May-18 07:00N 59°03' E 010°15'5 9.0
2018-May-18 06:30N 59°08' E 010°14'0 0.0
2018-May-18 06:00N 59°08' E 010°14'1 1.3
2018-May-18 05:30N 59°07' E 010°14'1 1.5
2018-May-18 05:00N 59°06' E 010°14'0 0.0
2018-May-18 04:28N 59°06' E 010°14'0 0.0
2018-May-18 03:59N 59°06' E 010°14'0 0.0
2018-May-18 03:29N 59°06' E 010°14'0 0.0
2018-May-18 02:59N 59°06' E 010°14'0 0.0
2018-May-18 02:30N 59°06' E 010°14'0 0.0
2018-May-18 02:00N 59°06' E 010°14'0 0.0
2018-May-18 01:30N 59°06' E 010°14'0 0.0
2018-May-18 00:58N 59°06' E 010°14'0 0.0
2018-May-18 00:28N 59°06' E 010°14'0 0.0
2018-May-17 23:58N 59°06' E 010°14'0 0.0
2018-May-17 23:29N 59°06' E 010°14'0 0.0
2018-May-17 22:59N 59°06' E 010°14'0 0.0
2018-May-17 22:29N 59°06' E 010°14'0 0.0
2018-May-17 22:00N 59°06' E 010°14'0 0.0
2018-May-17 21:30N 59°06' E 010°14'0 0.0
2018-May-17 21:00N 59°06' E 010°14'0 0.0
2018-May-17 20:28N 59°06' E 010°14'0 0.0
2018-May-17 19:58N 59°06' E 010°14'0 0.1
2018-May-17 19:30N 59°06' E 010°14'1 2.7
2018-May-17 19:00N 59°08' E 010°14'4 8.3
2018-May-17 18:30N 59°03' E 010°15'714.2
2018-May-17 18:01N 59°01' E 010°28'816.1
2018-May-17 17:31N 59°01' E 010°43'815.6
2018-May-17 17:00N 58°60' E 010°58'714.1
2018-May-17 16:30N 58°56' E 011°09'0 1.0
2018-May-17 16:01N 58°56' E 011°10'3 6.4
2018-May-17 15:31N 58°57' E 011°04'815.6
2018-May-17 15:00N 59°01' E 010°51'815.7
2018-May-17 14:31N 59°01' E 010°36'815.5
2018-May-17 14:01N 59°01' E 010°21'713.0
2018-May-17 13:30N 59°06' E 010°14'1 2.5
2018-May-17 13:00N 59°08' E 010°14'0 0.0
2018-May-17 12:31N 59°08' E 010°14'4 8.7
2018-May-17 12:01N 59°03' E 010°15'612.9
2018-May-17 11:31N 59°01' E 010°27'815.6
2018-May-17 11:01N 59°01' E 010°42'815.3
2018-May-17 10:30N 59°00' E 010°56'815.1
2018-May-17 10:01N 58°56' E 011°08'1 2.0
2018-May-17 09:31N 58°56' E 011°10'0 0.9
2018-May-17 09:00N 58°56' E 011°09'815.2
2018-May-17 08:30N 59°00' E 010°57'  
Track history (hours):
 
Tides and Currents Weather Stations Pressure Air Temp Water Temp Dewpoint Dewpoint Depression Visibility Wind Speed Wind Dir Waves Ship Positions

DucheSS Of Scandinavia

Operator: DFDS A/S

Last reported at 2018-May-27 08:01 UTC. Time now 2018-May-27 08:12 UTC.
Position N 59°02' E 010°47'.

Length 134 m; draft 5.4 m.

Type: Passenger vessel. MMSI: 219002929.

Date/timePositionNaut miles runAvg speedWind from/ knotsBaromVisibWave heightAir tempDewpointWater temp
2018-May-27 08:01N 59°02' E 010°47'815.5
2018-May-27 07:31N 59°01' E 010°32'815.5
2018-May-27 07:00N 59°01' E 010°17'612.5
2018-May-27 06:30N 59°07' E 010°14'0 0.6
2018-May-27 06:00N 59°08' E 010°14'0 0.9
2018-May-27 05:30N 59°07' E 010°14'1 2.0
2018-May-27 05:01N 59°06' E 010°14'0 0.0
2018-May-27 04:28N 59°06' E 010°14'0 0.0
2018-May-27 03:58N 59°06' E 010°14'0 0.0
2018-May-27 03:29N 59°06' E 010°14'0 0.0
2018-May-27 02:59N 59°06' E 010°14'0 0.0
2018-May-27 02:29N 59°06' E 010°14'0 0.0
2018-May-27 02:00N 59°06' E 010°14'0 0.0
2018-May-27 01:30N 59°06' E 010°14'0 0.0
2018-May-27 01:00N 59°06' E 010°14'0 0.0
2018-May-27 00:31N 59°06' E 010°14'0 0.0
2018-May-26 23:58N 59°06' E 010°14'0 0.0
2018-May-26 23:28N 59°06' E 010°14'0 0.0
2018-May-26 22:59N 59°06' E 010°14'0 0.0
2018-May-26 22:29N 59°06' E 010°14'0 0.0
2018-May-26 21:59N 59°06' E 010°14'0 0.0
2018-May-26 21:30N 59°06' E 010°14'0 0.0
2018-May-26 21:00N 59°06' E 010°14'0 0.0
2018-May-26 20:30N 59°06' E 010°14'0 0.0
2018-May-26 20:00N 59°06' E 010°14'1 1.3
2018-May-26 19:31N 59°07' E 010°14'1 1.5
2018-May-26 19:00N 59°08' E 010°14'5 9.3
2018-May-26 18:31N 59°03' E 010°15'714.9
2018-May-26 18:00N 59°01' E 010°29'816.2
2018-May-26 17:31N 59°01' E 010°45'815.9
2018-May-26 17:00N 58°60' E 010°60'613.0
2018-May-26 16:31N 58°56' E 011°10'0 0.1
2018-May-26 16:00N 58°56' E 011°10'4 8.5
2018-May-26 15:30N 58°58' E 011°03'815.2
2018-May-26 15:01N 59°01' E 010°50'815.3
2018-May-26 14:31N 59°01' E 010°35'715.0
2018-May-26 14:01N 59°01' E 010°20'612.2
2018-May-26 13:30N 59°06' E 010°14'1 2.8
2018-May-26 13:00N 59°08' E 010°14'0 0.0
2018-May-26 12:31N 59°08' E 010°14'4 7.8
2018-May-26 12:01N 59°04' E 010°15'714.4
2018-May-26 11:31N 59°01' E 010°28'816.0
2018-May-26 11:00N 59°02' E 010°43'815.6
2018-May-26 10:31N 58°60' E 010°58'714.2
2018-May-26 10:01N 58°56' E 011°09'1 1.1
2018-May-26 09:31N 58°56' E 011°10'0 0.8
2018-May-26 08:59N 58°56' E 011°09'613.2
2018-May-26 08:30N 58°59' E 010°59'815.1
2018-May-26 08:00N 59°02' E 010°45'815.2
2018-May-26 07:30N 59°00' E 010°31'714.9
2018-May-26 07:01N 59°01' E 010°17'612.1
2018-May-26 06:30N 59°07' E 010°14'1 0.6
2018-May-26 05:30N 59°07' E 010°14'1 1.0
2018-May-26 04:59N 59°06' E 010°14'0 0.0
2018-May-26 04:30N 59°06' E 010°14'0 0.0
2018-May-26 04:00N 59°06' E 010°14'0 0.0
2018-May-26 03:30N 59°06' E 010°14'0 0.0
2018-May-26 02:58N 59°06' E 010°14'0 0.0
2018-May-26 02:28N 59°06' E 010°14'0 0.0
2018-May-26 01:58N 59°06' E 010°14'0 0.0
2018-May-26 01:29N 59°06' E 010°14'0 0.0
2018-May-26 00:59N 59°06' E 010°14'0 0.0
2018-May-26 00:29N 59°06' E 010°14'0 0.0
2018-May-26 00:00N 59°06' E 010°14'0 0.0
2018-May-25 23:30N 59°06' E 010°14'0 0.0
2018-May-25 23:00N 59°06' E 010°14'0 0.0
2018-May-25 22:28N 59°06' E 010°14'0 0.0
2018-May-25 21:58N 59°06' E 010°14'0 0.0
2018-May-25 21:28N 59°06' E 010°14'0 0.0
2018-May-25 20:59N 59°06' E 010°14'0 0.0
2018-May-25 20:29N 59°06' E 010°14'0 0.0
2018-May-25 19:59N 59°06' E 010°14'1 2.1
2018-May-25 19:30N 59°07' E 010°14'0 0.8
2018-May-25 19:00N 59°08' E 010°14'3 6.6
2018-May-25 18:30N 59°04' E 010°15'714.2
2018-May-25 18:00N 59°01' E 010°27'816.1
2018-May-25 17:30N 59°01' E 010°42'816.1
2018-May-25 17:00N 59°00' E 010°58'714.5
2018-May-25 16:30N 58°56' E 011°09'1 1.0
2018-May-25 16:01N 58°56' E 011°10'4 8.6
2018-May-25 15:31N 58°58' E 011°03'815.5
2018-May-25 15:01N 59°01' E 010°49'815.9
2018-May-25 14:30N 59°01' E 010°34'815.7
2018-May-25 14:00N 59°01' E 010°19'612.6
2018-May-25 13:30N 59°07' E 010°14'1 1.3
2018-May-25 13:01N 59°08' E 010°14'0 0.0
2018-May-25 12:31N 59°08' E 010°14'5 9.6
2018-May-25 12:00N 59°03' E 010°15'714.1
2018-May-25 11:30N 59°01' E 010°28'714.9
2018-May-25 11:00N 59°01' E 010°43'714.9
2018-May-25 10:31N 59°00' E 010°57'714.4
2018-May-25 10:00N 58°56' E 011°08'1 2.0
2018-May-25 09:31N 58°56' E 011°10'0 0.4
2018-May-25 09:00N 58°56' E 011°10'713.9
2018-May-25 08:30N 58°60' E 010°58'815.1
2018-May-25 08:00N 59°02' E 010°44'815.7
2018-May-25 07:30N 59°00' E 010°29'714.6
2018-May-25 07:01N 59°02' E 010°15'510.5
2018-May-25 06:31N 59°08' E 010°14'0 0.2
2018-May-25 06:01N 59°08' E 010°14'1 2.2
2018-May-25 05:30N 59°06' E 010°14'0 0.7
2018-May-25 04:59N 59°06' E 010°14'0 0.0
2018-May-25 04:29N 59°06' E 010°14'0 0.0
2018-May-25 03:59N 59°06' E 010°14'0 0.0
2018-May-25 03:30N 59°06' E 010°14'0 0.0
2018-May-25 03:00N 59°06' E 010°14'0 0.0
2018-May-25 02:30N 59°06' E 010°14'0 0.0
2018-May-25 01:58N 59°06' E 010°14'0 0.0
2018-May-25 01:28N 59°06' E 010°14'0 0.0
2018-May-25 00:58N 59°06' E 010°14'0 0.0
2018-May-25 00:29N 59°06' E 010°14'0 0.0
2018-May-24 23:59N 59°06' E 010°14'0 0.0
2018-May-24 23:29N 59°06' E 010°14'0 0.0
2018-May-24 23:00N 59°06' E 010°14'0 0.0
2018-May-24 22:30N 59°06' E 010°14'0 0.0
2018-May-24 22:00N 59°06' E 010°14'0 0.0
2018-May-24 21:28N 59°06' E 010°14'0 0.0
2018-May-24 20:58N 59°06' E 010°14'0 0.0
2018-May-24 20:28N 59°06' E 010°14'0 0.0
2018-May-24 19:59N 59°06' E 010°14'0 0.2
2018-May-24 19:30N 59°06' E 010°14'1 2.7
2018-May-24 19:00N 59°08' E 010°14'4 8.1
2018-May-24 18:31N 59°04' E 010°15'714.5
2018-May-24 18:00N 59°01' E 010°28'815.8
2018-May-24 17:30N 59°01' E 010°43'815.7
2018-May-24 17:00N 58°60' E 010°58'714.1
2018-May-24 16:30N 58°56' E 011°09'1 1.1
2018-May-24 16:00N 58°56' E 011°10'5 9.6
2018-May-24 15:30N 58°58' E 011°02'815.3
2018-May-24 15:00N 59°01' E 010°49'815.8
2018-May-24 14:30N 59°01' E 010°33'815.4
2018-May-24 14:00N 59°01' E 010°18'612.6
2018-May-24 13:30N 59°07' E 010°14'31 6.9
2018-May-24 09:00N 58°56' E 011°10'612.8
2018-May-24 08:30N 58°60' E 010°59'815.1
2018-May-24 08:00N 59°02' E 010°46'815.9
2018-May-24 07:30N 59°01' E 010°30'714.7
2018-May-24 07:00N 59°02' E 010°16'611.8
2018-May-24 06:30N 59°07' E 010°14'0 0.3
2018-May-24 06:00N 59°08' E 010°14'1 1.6
2018-May-24 05:30N 59°07' E 010°14'1 1.2
2018-May-24 05:00N 59°06' E 010°14'0 0.0
2018-May-24 04:30N 59°06' E 010°14'0 0.0
2018-May-24 04:00N 59°06' E 010°14'0 0.0
2018-May-24 03:28N 59°06' E 010°14'0 0.0
2018-May-24 02:58N 59°06' E 010°14'0 0.0
2018-May-24 02:28N 59°06' E 010°14'0 0.0
2018-May-24 01:59N 59°06' E 010°14'0 0.0
2018-May-24 01:29N 59°06' E 010°14'0 0.0
2018-May-24 00:59N 59°06' E 010°14'0 0.0
2018-May-24 00:30N 59°06' E 010°14'0 0.0
2018-May-24 00:00N 59°06' E 010°14'0 0.0
2018-May-23 23:30N 59°06' E 010°14'0 0.0
2018-May-23 22:58N 59°06' E 010°14'0 0.0
2018-May-23 22:28N 59°06' E 010°14'0 0.0
2018-May-23 21:58N 59°06' E 010°14'0 0.0
2018-May-23 21:29N 59°06' E 010°14'0 0.0
2018-May-23 20:59N 59°06' E 010°14'0 0.0
2018-May-23 20:29N 59°06' E 010°14'0 0.0
2018-May-23 20:00N 59°06' E 010°14'0 0.3
2018-May-23 19:30N 59°06' E 010°14'1 2.6
2018-May-23 19:00N 59°08' E 010°14'4 8.8
2018-May-23 18:30N 59°03' E 010°15'815.3
2018-May-23 18:00N 59°01' E 010°29'815.9
2018-May-23 17:30N 59°02' E 010°44'816.0
2018-May-23 17:00N 58°60' E 010°59'713.4
2018-May-23 16:31N 58°56' E 011°10'0 0.1
2018-May-23 16:00N 58°56' E 011°10'4 8.7
2018-May-23 15:30N 58°58' E 011°03'714.4
2018-May-23 15:00N 59°01' E 010°50'714.9
2018-May-23 14:30N 59°01' E 010°36'815.3
2018-May-23 14:00N 59°01' E 010°21'612.4
2018-May-23 13:30N 59°06' E 010°14'2 3.0
2018-May-23 13:00N 59°08' E 010°14'0 0.0
2018-May-23 12:31N 59°08' E 010°14'4 8.3
2018-May-23 12:00N 59°04' E 010°15'612.3
2018-May-23 11:30N 59°01' E 010°26'815.9
2018-May-23 11:00N 59°02' E 010°41'816.2
2018-May-23 10:30N 59°00' E 010°57'815.3
2018-May-23 10:01N 58°56' E 011°09'1 1.4
2018-May-23 09:29N 58°56' E 011°10'0 0.0
2018-May-23 09:01N 58°56' E 011°10'612.4
2018-May-23 08:30N 58°59' E 010°60'815.2
2018-May-23 08:00N 59°02' E 010°46'815.7
2018-May-23 07:30N 59°00' E 010°31'815.2
2018-May-23 07:01N 59°02' E 010°16'611.7
2018-May-23 06:30N 59°07' E 010°14'0 0.4
2018-May-23 06:00N 59°08' E 010°14'1 1.5
2018-May-23 05:30N 59°07' E 010°14'1 1.4
2018-May-23 05:00N 59°06' E 010°14'0 0.0
2018-May-23 04:30N 59°06' E 010°14'0 0.0
2018-May-23 03:58N 59°06' E 010°14'0 0.0
2018-May-23 03:28N 59°06' E 010°14'0 0.0
2018-May-23 02:58N 59°06' E 010°14'0 0.0
2018-May-23 02:29N 59°06' E 010°14'0 0.0
2018-May-23 01:59N 59°06' E 010°14'0 0.0
2018-May-23 01:29N 59°06' E 010°14'0 0.0
2018-May-23 01:00N 59°06' E 010°14'0 0.0
2018-May-23 00:30N 59°06' E 010°14'0 0.0
2018-May-23 00:00N 59°06' E 010°14'0 0.0
2018-May-22 23:28N 59°06' E 010°14'0 0.0
2018-May-22 22:58N 59°06' E 010°14'0 0.0
2018-May-22 22:28N 59°06' E 010°14'0 0.0
2018-May-22 21:59N 59°06' E 010°14'0 0.0
2018-May-22 21:29N 59°06' E 010°14'0 0.0
2018-May-22 20:59N 59°06' E 010°14'0 0.0
2018-May-22 20:27N 59°06' E 010°14'0 0.0
2018-May-22 20:00N 59°06' E 010°14'1 1.8
2018-May-22 19:30N 59°07' E 010°14'1 1.1
2018-May-22 19:01N 59°08' E 010°14'5 9.1
2018-May-22 18:30N 59°03' E 010°15'714.4
2018-May-22 18:00N 59°01' E 010°28'815.5
2018-May-22 17:30N 59°01' E 010°43'816.0
2018-May-22 17:01N 58°60' E 010°59'714.0
2018-May-22 16:31N 58°56' E 011°10'0 0.4
2018-May-22 16:00N 58°56' E 011°10'4 7.7
2018-May-22 15:30N 58°57' E 011°03'715.0
2018-May-22 15:00N 59°01' E 010°51'815.2
2018-May-22 14:31N 59°01' E 010°36'815.3
2018-May-22 14:00N 59°01' E 010°21'612.9
2018-May-22 13:30N 59°06' E 010°14'1 2.6
2018-May-22 13:00N 59°08' E 010°14'0 0.0
2018-May-22 12:30N 59°08' E 010°14'5 9.6
2018-May-22 12:00N 59°03' E 010°15'714.4
2018-May-22 11:30N 59°01' E 010°29'815.1
2018-May-22 11:01N 59°01' E 010°43'815.4
2018-May-22 10:31N 58°60' E 010°58'714.2
2018-May-22 10:00N 58°56' E 011°09'0 1.0
2018-May-22 09:30N 58°56' E 011°10'0 0.8
2018-May-22 09:00N 58°56' E 011°09'713.8
2018-May-22 08:30N 58°60' E 010°58'815.0
2018-May-22 08:00N 59°02' E 010°44'815.7
2018-May-22 07:30N 59°00' E 010°30'714.9
2018-May-22 07:00N 59°02' E 010°16'510.6
2018-May-22 06:30N 59°07' E 010°14'0 0.2
2018-May-22 06:01N 59°08' E 010°14'1 1.1
2018-May-22 05:30N 59°07' E 010°14'1 1.8
2018-May-22 05:00N 59°06' E 010°14'0 0.0
2018-May-22 04:28N 59°06' E 010°14'0 0.0
2018-May-22 03:59N 59°06' E 010°14'0 0.0
2018-May-22 03:29N 59°06' E 010°14'0 0.0
2018-May-22 02:59N 59°06' E 010°14'0 0.0
2018-May-22 02:30N 59°06' E 010°14'0 0.0
2018-May-22 02:00N 59°06' E 010°14'0 0.0
2018-May-22 01:30N 59°06' E 010°14'0 0.0
2018-May-22 00:58N 59°06' E 010°14'0 0.0
2018-May-22 00:28N 59°06' E 010°14'0 0.0
2018-May-21 23:58N 59°06' E 010°14'0 0.0
2018-May-21 23:29N 59°06' E 010°14'0 0.0
2018-May-21 22:59N 59°06' E 010°14'0 0.0
2018-May-21 22:29N 59°06' E 010°14'0 0.0
2018-May-21 22:00N 59°06' E 010°14'0 0.0
2018-May-21 21:30N 59°06' E 010°14'0 0.0
2018-May-21 21:00N 59°06' E 010°14'0 0.0
2018-May-21 20:28N 59°06' E 010°14'0 0.0
2018-May-21 19:58N 59°06' E 010°14'0 0.3
2018-May-21 19:29N 59°06' E 010°14'1 2.7
2018-May-21 19:01N 59°08' E 010°14'4 7.2
2018-May-21 18:30N 59°04' E 010°15'714.5
2018-May-21 18:00N 59°01' E 010°27'816.2
2018-May-21 17:30N 59°02' E 010°43'816.7
2018-May-21 17:01N 58°60' E 010°59'713.8
2018-May-21 16:30N 58°56' E 011°10'0 0.1
2018-May-21 16:00N 58°56' E 011°10'4 7.3
2018-May-21 15:31N 58°57' E 011°03'815.3
2018-May-21 15:01N 59°01' E 010°51'816.4
2018-May-21 14:31N 59°01' E 010°35'816.4
2018-May-21 14:01N 59°01' E 010°19'713.0
2018-May-21 13:30N 59°07' E 010°14'1 1.1
2018-May-21 13:00N 59°08' E 010°14'0 0.1
2018-May-21 12:30N 59°08' E 010°14'611.3
2018-May-21 12:01N 59°02' E 010°16'815.1
2018-May-21 11:31N 59°01' E 010°30'714.8
2018-May-21 11:01N 59°02' E 010°44'815.2
2018-May-21 10:31N 58°60' E 010°58'714.1
2018-May-21 10:01N 58°56' E 011°10'0 0.6
2018-May-21 09:30N 58°56' E 011°10'0 1.0
2018-May-21 09:00N 58°56' E 011°09'713.7
2018-May-21 08:30N 58°60' E 010°59'815.1
2018-May-21 08:01N 59°02' E 010°44'816.4
2018-May-21 07:31N 59°00' E 010°29'714.4
2018-May-21 07:00N 59°03' E 010°15'5 9.4
2018-May-21 06:30N 59°08' E 010°14'0 0.0
2018-May-21 06:00N 59°08' E 010°14'0 0.2
2018-May-21 05:30N 59°07' E 010°14'1 2.7
2018-May-21 05:00N 59°06' E 010°14'0 0.0
2018-May-21 04:29N 59°06' E 010°14'0 0.0
2018-May-21 03:59N 59°06' E 010°14'0 0.0
2018-May-21 03:29N 59°06' E 010°14'0 0.0
2018-May-21 03:00N 59°06' E 010°14'0 0.0
2018-May-21 02:30N 59°06' E 010°14'0 0.0
2018-May-21 02:00N 59°06' E 010°14'0 0.0
2018-May-21 01:28N 59°06' E 010°14'0 0.0
2018-May-21 00:58N 59°06' E 010°14'0 0.0
2018-May-21 00:28N 59°06' E 010°14'0 0.0
2018-May-20 23:59N 59°06' E 010°14'0 0.0
2018-May-20 23:29N 59°06' E 010°14'0 0.0
2018-May-20 22:59N 59°06' E 010°14'0 0.0
2018-May-20 22:30N 59°06' E 010°14'0 0.0
2018-May-20 22:00N 59°06' E 010°14'0 0.0
2018-May-20 21:30N 59°06' E 010°14'0 0.0
2018-May-20 20:58N 59°06' E 010°14'0 0.0
2018-May-20 20:28N 59°06' E 010°14'0 0.0
2018-May-20 20:01N 59°06' E 010°14'1 2.6
2018-May-20 19:30N 59°07' E 010°14'0 0.2
2018-May-20 19:01N 59°08' E 010°14'611.3
2018-May-20 18:31N 59°02' E 010°16'815.5
2018-May-20 18:01N 59°01' E 010°30'815.3
2018-May-20 17:30N 59°02' E 010°45'816.0
2018-May-20 17:01N 58°59' E 011°00'612.4
2018-May-20 16:30N 58°56' E 011°10'0 0.0
2018-May-20 16:01N 58°56' E 011°10'4 7.0
2018-May-20 15:30N 58°57' E 011°04'815.7
2018-May-20 15:00N 59°01' E 010°51'816.0
2018-May-20 14:30N 59°01' E 010°35'816.5
2018-May-20 14:01N 59°01' E 010°19'612.7
2018-May-20 13:31N 59°07' E 010°14'1 1.7
2018-May-20 13:00N 59°08' E 010°14'0 0.0
2018-May-20 12:31N 59°08' E 010°14'510.4
2018-May-20 12:00N 59°02' E 010°16'714.8
2018-May-20 11:31N 59°01' E 010°30'815.3
2018-May-20 11:01N 59°02' E 010°44'815.2
2018-May-20 10:31N 58°60' E 010°59'713.7
2018-May-20 10:00N 58°56' E 011°10'0 0.5
2018-May-20 09:30N 58°56' E 011°10'0 0.3
2018-May-20 09:00N 58°56' E 011°10'713.5
2018-May-20 08:30N 58°60' E 010°59'815.6
2018-May-20 08:00N 59°02' E 010°44'816.4
2018-May-20 07:30N 59°00' E 010°28'714.7
2018-May-20 07:00N 59°03' E 010°15'4 8.6
2018-May-20 06:30N 59°08' E 010°14'0 0.0
2018-May-20 06:00N 59°08' E 010°14'0 0.9
2018-May-20 05:30N 59°07' E 010°14'1 2.0
2018-May-20 05:01N 59°06' E 010°14'0 0.0
2018-May-20 04:28N 59°06' E 010°14'0 0.0
2018-May-20 03:58N 59°06' E 010°14'0 0.0
2018-May-20 03:28N 59°06' E 010°14'0 0.0
2018-May-20 02:59N 59°06' E 010°14'0 0.0
2018-May-20 02:29N 59°06' E 010°14'0 0.0
2018-May-20 01:59N 59°06' E 010°14'0 0.0
2018-May-20 01:30N 59°06' E 010°14'0 0.0
2018-May-20 01:00N 59°06' E 010°14'0 0.0
2018-May-20 00:30N 59°06' E 010°14'0 0.0
2018-May-19 23:58N 59°06' E 010°14'0 0.0
2018-May-19 23:28N 59°06' E 010°14'0 0.0
2018-May-19 22:58N 59°06' E 010°14'0 0.0
2018-May-19 22:29N 59°06' E 010°14'0 0.0
2018-May-19 21:59N 59°06' E 010°14'0 0.0
2018-May-19 21:29N 59°06' E 010°14'0 0.0
2018-May-19 21:00N 59°06' E 010°14'0 0.0
2018-May-19 20:27N 59°06' E 010°14'0 0.0
2018-May-19 20:00N 59°06' E 010°14'0 0.0
2018-May-19 19:30N 59°06' E 010°14'1 2.9
2018-May-19 19:00N 59°08' E 010°14'3 5.9
2018-May-19 18:30N 59°05' E 010°15'713.9
2018-May-19 18:00N 59°01' E 010°26'816.1
2018-May-19 17:30N 59°01' E 010°42'816.2
2018-May-19 17:00N 59°00' E 010°57'815.0
2018-May-19 16:30N 58°56' E 011°09'1 1.2
2018-May-19 16:00N 58°56' E 011°10'4 7.6
2018-May-19 15:30N 58°57' E 011°03'815.3
2018-May-19 15:00N 59°01' E 010°50'815.7
2018-May-19 14:30N 59°01' E 010°35'816.1
2018-May-19 14:00N 59°01' E 010°20'612.8
2018-May-19 13:30N 59°07' E 010°14'1 1.8
2018-May-19 13:00N 59°08' E 010°14'0 0.0
2018-May-19 12:30N 59°08' E 010°14'5 9.5
2018-May-19 12:01N 59°03' E 010°15'713.9
2018-May-19 11:30N 59°01' E 010°28'815.1
2018-May-19 11:00N 59°02' E 010°43'815.2
2018-May-19 10:30N 59°00' E 010°57'714.3
2018-May-19 10:01N 58°56' E 011°08'1 1.9
2018-May-19 09:30N 58°56' E 011°10'0 0.1
2018-May-19 09:01N 58°56' E 011°10'713.3
2018-May-19 08:30N 58°59' E 010°59'816.3
2018-May-19 08:00N 59°01' E 010°44'816.7
2018-May-19 07:30N 59°00' E 010°28'714.4
2018-May-19 07:00N 59°04' E 010°15'4 8.0
2018-May-19 06:30N 59°08' E 010°14'0 0.0
2018-May-19 06:00N 59°08' E 010°14'1 1.2
2018-May-19 05:30N 59°07' E 010°14'1 1.7
2018-May-19 05:01N 59°06' E 010°14'0 0.0
2018-May-19 04:30N 59°06' E 010°14'0 0.0
2018-May-19 04:01N 59°06' E 010°14'0 0.0
2018-May-19 03:30N 59°06' E 010°14'0 0.0
2018-May-19 03:00N 59°06' E 010°14'0 0.0
2018-May-19 02:30N 59°06' E 010°14'0 0.0
2018-May-19 02:00N 59°06' E 010°14'0 0.0
2018-May-19 01:30N 59°06' E 010°14'0 0.0
2018-May-19 01:00N 59°06' E 010°14'0 0.0
2018-May-19 00:31N 59°06' E 010°14'0 0.0
2018-May-19 00:00N 59°06' E 010°14'0 0.0
2018-May-18 23:30N 59°06' E 010°14'0 0.0
2018-May-18 23:00N 59°06' E 010°14'0 0.0
2018-May-18 22:31N 59°06' E 010°14'0 0.0
2018-May-18 22:01N 59°06' E 010°14'0 0.0
2018-May-18 21:30N 59°06' E 010°14'0 0.0
2018-May-18 21:00N 59°06' E 010°14'0 0.0
2018-May-18 20:31N 59°06' E 010°14'0 0.0
2018-May-18 20:01N 59°06' E 010°14'1 2.8
2018-May-18 19:30N 59°08' E 010°14'0 0.2
2018-May-18 19:00N 59°07' E 010°14'612.2
2018-May-18 18:30N 59°02' E 010°16'815.9
2018-May-18 18:00N 59°01' E 010°32'816.5
2018-May-18 17:30N 59°02' E 010°47'816.2
2018-May-18 17:01N 58°59' E 011°02'510.0
2018-May-18 16:30N 58°56' E 011°10'0 0.0
2018-May-18 16:00N 58°56' E 011°10'4 8.1
2018-May-18 15:30N 58°58' E 011°03'816.6
2018-May-18 15:00N 59°01' E 010°49'816.4
2018-May-18 14:30N 59°01' E 010°33'816.8
2018-May-18 14:01N 59°02' E 010°17'612.4
2018-May-18 13:30N 59°07' E 010°14'0 0.2
2018-May-18 13:01N 59°08' E 010°14'0 0.0
2018-May-18 12:31N 59°08' E 010°14'4 8.6
2018-May-18 12:00N 59°03' E 010°15'714.1
2018-May-18 11:30N 59°01' E 010°28'815.5
2018-May-18 11:00N 59°01' E 010°43'815.0
2018-May-18 10:31N 59°00' E 010°57'714.7
2018-May-18 10:00N 58°56' E 011°09'1 1.5
2018-May-18 09:30N 58°56' E 011°10'0 0.3
2018-May-18 09:01N 58°56' E 011°10'713.2
2018-May-18 08:31N 58°59' E 010°59'816.2
2018-May-18 08:00N 59°01' E 010°44'816.1
2018-May-18 07:31N 59°01' E 010°28'714.4
2018-May-18 07:00N 59°03' E 010°15'5 9.0
2018-May-18 06:30N 59°08' E 010°14'0 0.0
2018-May-18 06:00N 59°08' E 010°14'1 1.3
2018-May-18 05:30N 59°07' E 010°14'1 1.5
2018-May-18 05:00N 59°06' E 010°14'0 0.0
2018-May-18 04:28N 59°06' E 010°14'0 0.0
2018-May-18 03:59N 59°06' E 010°14'0 0.0
2018-May-18 03:29N 59°06' E 010°14'0 0.0
2018-May-18 02:59N 59°06' E 010°14'0 0.0
2018-May-18 02:30N 59°06' E 010°14'0 0.0
2018-May-18 02:00N 59°06' E 010°14'0 0.0
2018-May-18 01:30N 59°06' E 010°14'0 0.0
2018-May-18 00:58N 59°06' E 010°14'0 0.0
2018-May-18 00:28N 59°06' E 010°14'0 0.0
2018-May-17 23:58N 59°06' E 010°14'0 0.0
2018-May-17 23:29N 59°06' E 010°14'0 0.0
2018-May-17 22:59N 59°06' E 010°14'0 0.0
2018-May-17 22:29N 59°06' E 010°14'0 0.0
2018-May-17 22:00N 59°06' E 010°14'0 0.0
2018-May-17 21:30N 59°06' E 010°14'0 0.0
2018-May-17 21:00N 59°06' E 010°14'0 0.0
2018-May-17 20:28N 59°06' E 010°14'0 0.0
2018-May-17 19:58N 59°06' E 010°14'0 0.1
2018-May-17 19:30N 59°06' E 010°14'1 2.7
2018-May-17 19:00N 59°08' E 010°14'4 8.3
2018-May-17 18:30N 59°03' E 010°15'714.2
2018-May-17 18:01N 59°01' E 010°28'816.1
2018-May-17 17:31N 59°01' E 010°43'815.6
2018-May-17 17:00N 58°60' E 010°58'714.1
2018-May-17 16:30N 58°56' E 011°09'0 1.0
2018-May-17 16:01N 58°56' E 011°10'3 6.4
2018-May-17 15:31N 58°57' E 011°04'815.6
2018-May-17 15:00N 59°01' E 010°51'815.7
2018-May-17 14:31N 59°01' E 010°36'815.5
2018-May-17 14:01N 59°01' E 010°21'713.0
2018-May-17 13:30N 59°06' E 010°14'1 2.5
2018-May-17 13:00N 59°08' E 010°14'0 0.0
2018-May-17 12:31N 59°08' E 010°14'4 8.7
2018-May-17 12:01N 59°03' E 010°15'612.9
2018-May-17 11:31N 59°01' E 010°27'815.6
2018-May-17 11:01N 59°01' E 010°42'815.3
2018-May-17 10:30N 59°00' E 010°56'815.1
2018-May-17 10:01N 58°56' E 011°08'1 2.0
2018-May-17 09:31N 58°56' E 011°10'0 0.9
2018-May-17 09:00N 58°56' E 011°09'815.2
2018-May-17 08:30N 59°00' E 010°57'  

Dump ship's entire track history